Satisfaction — WDF7649 — position and weather

sailwx.info

Track history (hours):
 
Tides and Currents Weather Stations Pressure Air Temp Water Temp Dewpoint Dewpoint Depression Visibility Wind Speed Wind Dir Waves Ship Positions

Satisfaction

Owner: Foley, Michael W, Redmond, WA. More information available from US FCC via Universal Licensing System and Coast Guard Vessel Documentation Center.

Last reported at 2016-Jul-25 21:19 UTC. Time now 2016-Jul-27 19:12 UTC.
Position N 48°37' W 123°09'.

Length 16 m.

Type: Pleasure craft. MMSI: 367486660.

Date/timePositionNaut miles runAvg speedWind from/ knotsBaromVisibWave heightAir tempDewpointWater temp
2016-Jul-25 21:19N 48°37' W 123°09'0 0.0
2016-Jul-25 09:31N 48°37' W 123°09'0 0.0
2016-Jul-24 09:14N 48°37' W 123°09'0 0.0
2016-Jul-24 06:19N 48°37' W 123°09'0 0.0
2016-Jul-23 22:32N 48°37' W 123°09'0 0.0
2016-Jul-23 20:10N 48°37' W 123°09'0 0.0
2016-Jul-23 18:13N 48°37' W 123°09'5 5.7
2016-Jul-23 17:19N 48°35' W 123°02'6 8.4
2016-Jul-23 16:33N 48°29' W 122°57'1512.0
2016-Jul-23 15:20N 48°15' W 122°52'25 0.6
2016-Jul-21 21:33N 47°55' W 122°31'1110.9
2016-Jul-21 20:33N 47°44' W 122°26'5 4.6
2016-Jul-21 19:33N 47°40' W 122°24'3 2.7
2016-Jul-21 18:30N 47°39' W 122°19'5 4.3
2016-Jul-21 17:23N 47°39' W 122°12'0 0.0
2016-Jul-21 16:26N 47°39' W 122°12'0 0.0
2016-Jul-21 13:29N 47°39' W 122°12'0 0.0
2016-Jul-21 12:26N 47°39' W 122°12'0 0.0
2016-Jul-21 11:08N 47°39' W 122°12'0 0.0
2016-Jul-21 10:05N 47°39' W 122°12'0 0.0
2016-Jul-21 08:29N 47°39' W 122°12'0 0.0
2016-Jul-21 07:29N 47°39' W 122°12'0 0.0
2016-Jul-21 06:32N 47°39' W 122°12'0 0.0
2016-Jul-21 04:26N 47°39' W 122°12'0 0.0
2016-Jul-21 03:32N 47°39' W 122°12'0 0.0
2016-Jul-21 01:05N 47°39' W 122°12'0 0.0
2016-Jul-21 00:32N 47°39' W 122°12'0 0.0
2016-Jul-20 23:26N 47°39' W 122°12'0 0.0
2016-Jul-20 22:05N 47°39' W 122°12'0 0.0
2016-Jul-20 21:20N 47°39' W 122°12'0 0.0
2016-Jul-20 20:32N 47°39' W 122°12'0 0.0
2016-Jul-20 19:32N 47°39' W 122°12'0 0.0
2016-Jul-20 18:32N 47°39' W 122°12'0 0.0
2016-Jul-20 17:14N 47°39' W 122°12'0 0.0
2016-Jul-20 16:20N 47°39' W 122°12'0 0.0
2016-Jul-20 15:29N 47°39' W 122°12'0 0.0
2016-Jul-20 14:32N 47°39' W 122°12'0 0.0
2016-Jul-20 13:26N 47°39' W 122°12'0 0.0
2016-Jul-20 12:32N 47°39' W 122°12'0 0.0
2016-Jul-20 11:32N 47°39' W 122°12'0 0.0
2016-Jul-20 10:23N 47°39' W 122°12'0 0.0
2016-Jul-20 09:20N 47°39' W 122°12'0 0.0
2016-Jul-20 08:26N 47°39' W 122°12'0 0.0
2016-Jul-20 07:32N 47°39' W 122°12'0 0.0
2016-Jul-20 06:26N 47°39' W 122°12'0 0.0
2016-Jul-20 05:29N 47°39' W 122°12'0 0.0
2016-Jul-20 04:29N 47°39' W 122°12'0 0.0
2016-Jul-20 03:20N 47°39' W 122°12'0 0.0
2016-Jul-20 02:29N 47°39' W 122°12'0 0.0
2016-Jul-20 01:32N 47°39' W 122°12'0 0.0
2016-Jul-20 00:23N 47°39' W 122°12'0 0.0
2016-Jul-19 23:26N 47°39' W 122°12'0 0.0
2016-Jul-19 22:32N 47°39' W 122°12'0 0.0
2016-Jul-19 21:32N 47°39' W 122°12'0 0.0
2016-Jul-19 20:32N 47°39' W 122°12'0 0.0
2016-Jul-19 19:29N 47°39' W 122°12'0 0.0
2016-Jul-19 18:32N 47°39' W 122°12'0 0.0
2016-Jul-19 17:32N 47°39' W 122°12'0 0.0
2016-Jul-19 16:26N 47°39' W 122°12'0 0.0
2016-Jul-19 15:26N 47°39' W 122°12'0 0.0
2016-Jul-19 14:26N 47°39' W 122°12'0 0.0
2016-Jul-19 13:32N 47°39' W 122°12'0 0.0
2016-Jul-19 12:32N 47°39' W 122°12'0 0.0
2016-Jul-19 11:26N 47°39' W 122°12'0 0.0
2016-Jul-19 10:26N 47°39' W 122°12'0 0.0
2016-Jul-19 09:26N 47°39' W 122°12'0 0.0
2016-Jul-19 08:32N 47°39' W 122°12'0 0.0
2016-Jul-19 07:26N 47°39' W 122°12'0 0.0
2016-Jul-19 03:29N 47°39' W 122°12'0 0.0
2016-Jul-19 02:23N 47°39' W 122°12'0 0.0
2016-Jul-19 01:32N 47°39' W 122°12'0 0.0
2016-Jul-19 00:29N 47°39' W 122°12'0 0.0
2016-Jul-18 23:32N 47°39' W 122°12'0 0.0
2016-Jul-18 22:23N 47°39' W 122°12'0 0.0
2016-Jul-18 21:32N 47°39' W 122°12'0 0.0
2016-Jul-18 20:17N 47°39' W 122°12'0 0.0
2016-Jul-18 19:32N 47°39' W 122°12'0 0.0
2016-Jul-18 18:32N 47°39' W 122°12'0 0.0
2016-Jul-18 17:32N 47°39' W 122°12'0 0.0
2016-Jul-18 16:29N 47°39' W 122°12'0 0.0
2016-Jul-18 15:26N 47°39' W 122°12'0 0.0
2016-Jul-18 14:32N 47°39' W 122°12'0 0.0
2016-Jul-18 13:32N 47°39' W 122°12'0 0.0
2016-Jul-18 12:32N 47°39' W 122°12'0 0.0
2016-Jul-18 11:32N 47°39' W 122°12'0 0.0
2016-Jul-18 10:23N 47°39' W 122°12'0 0.0
2016-Jul-18 09:20N 47°39' W 122°12'0 0.0
2016-Jul-18 08:32N 47°39' W 122°12'0 0.0
2016-Jul-18 07:20N 47°39' W 122°12'0 0.0
2016-Jul-18 06:08N 47°39' W 122°12'0 0.0
2016-Jul-18 05:32N 47°39' W 122°12'0 0.0
2016-Jul-18 04:29N 47°39' W 122°12'0 0.0
2016-Jul-18 03:32N 47°39' W 122°12'0 0.0
2016-Jul-18 02:32N 47°39' W 122°12'0 0.0
2016-Jul-18 01:32N 47°39' W 122°12'0 0.0
2016-Jul-18 00:26N 47°39' W 122°12'0 0.0
2016-Jul-17 23:32N 47°39' W 122°12'0 0.0
2016-Jul-17 22:29N 47°39' W 122°12'0 0.0
2016-Jul-17 21:32N 47°39' W 122°12'0 0.0
2016-Jul-17 20:32N 47°39' W 122°12'0 0.0
2016-Jul-17 19:29N 47°39' W 122°12'0 0.0
2016-Jul-17 18:32N 47°39' W 122°12'0 0.0
2016-Jul-17 17:26N 47°39' W 122°12'0 0.0
2016-Jul-17 16:32N 47°39' W 122°12'0 0.0
2016-Jul-17 15:20N 47°39' W 122°12'0 0.0
2016-Jul-17 14:32N 47°39' W 122°12'0 0.0
2016-Jul-17 13:32N 47°39' W 122°12'0 0.0
2016-Jul-17 12:32N 47°39' W 122°12'0 0.0
2016-Jul-17 11:26N 47°39' W 122°12'0 0.0
2016-Jul-17 10:20N 47°39' W 122°12'0 0.0
2016-Jul-17 09:26N 47°39' W 122°12'0 0.0
2016-Jul-17 08:32N 47°39' W 122°12'0 0.0
2016-Jul-17 07:20N 47°39' W 122°12'0 0.0
2016-Jul-17 06:32N 47°39' W 122°12'0 0.0
2016-Jul-17 04:32N 47°39' W 122°12'0 0.0
2016-Jul-17 03:32N 47°39' W 122°12'0 0.0
2016-Jul-17 02:32N 47°39' W 122°12'0 0.0
2016-Jul-17 01:32N 47°39' W 122°12'0 0.0
2016-Jul-17 00:32N 47°39' W 122°12'0 0.0
2016-Jul-16 23:26N 47°39' W 122°12'0 0.0
2016-Jul-16 22:32N 47°39' W 122°12'0 0.0
2016-Jul-16 21:29N 47°39' W 122°12'0 0.0
2016-Jul-16 20:32N 47°39' W 122°12'0 0.0
2016-Jul-16 19:32N 47°39' W 122°12'0 0.0
2016-Jul-16 18:32N 47°39' W 122°12'0 0.0
2016-Jul-16 17:26N 47°39' W 122°12'0 0.0
2016-Jul-16 16:32N 47°39' W 122°12'0 0.0
2016-Jul-16 15:32N 47°39' W 122°12'0 0.0
2016-Jul-16 14:32N 47°39' W 122°12'0 0.0
2016-Jul-16 13:32N 47°39' W 122°12'0 0.0
2016-Jul-16 12:32N 47°39' W 122°12'0 0.0
2016-Jul-16 11:32N 47°39' W 122°12'0 0.0
2016-Jul-16 10:32N 47°39' W 122°12'0 0.0
2016-Jul-16 09:32N 47°39' W 122°12'0 0.0
2016-Jul-16 08:32N 47°39' W 122°12'0 0.0
2016-Jul-16 07:32N 47°39' W 122°12'0 0.0
2016-Jul-16 06:32N 47°39' W 122°12'0 0.0
2016-Jul-16 04:32N 47°39' W 122°12'0 0.1
2016-Jul-16 03:29N 47°39' W 122°13'1 0.4
2016-Jul-16 00:33N 47°40' W 122°13'  
Track history (hours):
 
Tides and Currents Weather Stations Pressure Air Temp Water Temp Dewpoint Dewpoint Depression Visibility Wind Speed Wind Dir Waves Ship Positions

Satisfaction

Owner: Foley, Michael W, Redmond, WA. More information available from US FCC via Universal Licensing System and Coast Guard Vessel Documentation Center.

Last reported at 2016-Jul-25 21:19 UTC. Time now 2016-Jul-27 19:12 UTC.
Position N 48°37' W 123°09'.

Length 16 m.

Type: Pleasure craft. MMSI: 367486660.

Date/timePositionNaut miles runAvg speedWind from/ knotsBaromVisibWave heightAir tempDewpointWater temp
2016-Jul-25 21:19N 48°37' W 123°09'0 0.0
2016-Jul-25 09:31N 48°37' W 123°09'0 0.0
2016-Jul-24 09:14N 48°37' W 123°09'0 0.0
2016-Jul-24 06:19N 48°37' W 123°09'0 0.0
2016-Jul-23 22:32N 48°37' W 123°09'0 0.0
2016-Jul-23 20:10N 48°37' W 123°09'0 0.0
2016-Jul-23 18:13N 48°37' W 123°09'5 5.7
2016-Jul-23 17:19N 48°35' W 123°02'6 8.4
2016-Jul-23 16:33N 48°29' W 122°57'1512.0
2016-Jul-23 15:20N 48°15' W 122°52'25 0.6
2016-Jul-21 21:33N 47°55' W 122°31'1110.9
2016-Jul-21 20:33N 47°44' W 122°26'5 4.6
2016-Jul-21 19:33N 47°40' W 122°24'3 2.7
2016-Jul-21 18:30N 47°39' W 122°19'5 4.3
2016-Jul-21 17:23N 47°39' W 122°12'0 0.0
2016-Jul-21 16:26N 47°39' W 122°12'0 0.0
2016-Jul-21 13:29N 47°39' W 122°12'0 0.0
2016-Jul-21 12:26N 47°39' W 122°12'0 0.0
2016-Jul-21 11:08N 47°39' W 122°12'0 0.0
2016-Jul-21 10:05N 47°39' W 122°12'0 0.0
2016-Jul-21 08:29N 47°39' W 122°12'0 0.0
2016-Jul-21 07:29N 47°39' W 122°12'0 0.0
2016-Jul-21 06:32N 47°39' W 122°12'0 0.0
2016-Jul-21 04:26N 47°39' W 122°12'0 0.0
2016-Jul-21 03:32N 47°39' W 122°12'0 0.0
2016-Jul-21 01:05N 47°39' W 122°12'0 0.0
2016-Jul-21 00:32N 47°39' W 122°12'0 0.0
2016-Jul-20 23:26N 47°39' W 122°12'0 0.0
2016-Jul-20 22:05N 47°39' W 122°12'0 0.0
2016-Jul-20 21:20N 47°39' W 122°12'0 0.0
2016-Jul-20 20:32N 47°39' W 122°12'0 0.0
2016-Jul-20 19:32N 47°39' W 122°12'0 0.0
2016-Jul-20 18:32N 47°39' W 122°12'0 0.0
2016-Jul-20 17:14N 47°39' W 122°12'0 0.0
2016-Jul-20 16:20N 47°39' W 122°12'0 0.0
2016-Jul-20 15:29N 47°39' W 122°12'0 0.0
2016-Jul-20 14:32N 47°39' W 122°12'0 0.0
2016-Jul-20 13:26N 47°39' W 122°12'0 0.0
2016-Jul-20 12:32N 47°39' W 122°12'0 0.0
2016-Jul-20 11:32N 47°39' W 122°12'0 0.0
2016-Jul-20 10:23N 47°39' W 122°12'0 0.0
2016-Jul-20 09:20N 47°39' W 122°12'0 0.0
2016-Jul-20 08:26N 47°39' W 122°12'0 0.0
2016-Jul-20 07:32N 47°39' W 122°12'0 0.0
2016-Jul-20 06:26N 47°39' W 122°12'0 0.0
2016-Jul-20 05:29N 47°39' W 122°12'0 0.0
2016-Jul-20 04:29N 47°39' W 122°12'0 0.0
2016-Jul-20 03:20N 47°39' W 122°12'0 0.0
2016-Jul-20 02:29N 47°39' W 122°12'0 0.0
2016-Jul-20 01:32N 47°39' W 122°12'0 0.0
2016-Jul-20 00:23N 47°39' W 122°12'0 0.0
2016-Jul-19 23:26N 47°39' W 122°12'0 0.0
2016-Jul-19 22:32N 47°39' W 122°12'0 0.0
2016-Jul-19 21:32N 47°39' W 122°12'0 0.0
2016-Jul-19 20:32N 47°39' W 122°12'0 0.0
2016-Jul-19 19:29N 47°39' W 122°12'0 0.0
2016-Jul-19 18:32N 47°39' W 122°12'0 0.0
2016-Jul-19 17:32N 47°39' W 122°12'0 0.0
2016-Jul-19 16:26N 47°39' W 122°12'0 0.0
2016-Jul-19 15:26N 47°39' W 122°12'0 0.0
2016-Jul-19 14:26N 47°39' W 122°12'0 0.0
2016-Jul-19 13:32N 47°39' W 122°12'0 0.0
2016-Jul-19 12:32N 47°39' W 122°12'0 0.0
2016-Jul-19 11:26N 47°39' W 122°12'0 0.0
2016-Jul-19 10:26N 47°39' W 122°12'0 0.0
2016-Jul-19 09:26N 47°39' W 122°12'0 0.0
2016-Jul-19 08:32N 47°39' W 122°12'0 0.0
2016-Jul-19 07:26N 47°39' W 122°12'0 0.0
2016-Jul-19 03:29N 47°39' W 122°12'0 0.0
2016-Jul-19 02:23N 47°39' W 122°12'0 0.0
2016-Jul-19 01:32N 47°39' W 122°12'0 0.0
2016-Jul-19 00:29N 47°39' W 122°12'0 0.0
2016-Jul-18 23:32N 47°39' W 122°12'0 0.0
2016-Jul-18 22:23N 47°39' W 122°12'0 0.0
2016-Jul-18 21:32N 47°39' W 122°12'0 0.0
2016-Jul-18 20:17N 47°39' W 122°12'0 0.0
2016-Jul-18 19:32N 47°39' W 122°12'0 0.0
2016-Jul-18 18:32N 47°39' W 122°12'0 0.0
2016-Jul-18 17:32N 47°39' W 122°12'0 0.0
2016-Jul-18 16:29N 47°39' W 122°12'0 0.0
2016-Jul-18 15:26N 47°39' W 122°12'0 0.0
2016-Jul-18 14:32N 47°39' W 122°12'0 0.0
2016-Jul-18 13:32N 47°39' W 122°12'0 0.0
2016-Jul-18 12:32N 47°39' W 122°12'0 0.0
2016-Jul-18 11:32N 47°39' W 122°12'0 0.0
2016-Jul-18 10:23N 47°39' W 122°12'0 0.0
2016-Jul-18 09:20N 47°39' W 122°12'0 0.0
2016-Jul-18 08:32N 47°39' W 122°12'0 0.0
2016-Jul-18 07:20N 47°39' W 122°12'0 0.0
2016-Jul-18 06:08N 47°39' W 122°12'0 0.0
2016-Jul-18 05:32N 47°39' W 122°12'0 0.0
2016-Jul-18 04:29N 47°39' W 122°12'0 0.0
2016-Jul-18 03:32N 47°39' W 122°12'0 0.0
2016-Jul-18 02:32N 47°39' W 122°12'0 0.0
2016-Jul-18 01:32N 47°39' W 122°12'0 0.0
2016-Jul-18 00:26N 47°39' W 122°12'0 0.0
2016-Jul-17 23:32N 47°39' W 122°12'0 0.0
2016-Jul-17 22:29N 47°39' W 122°12'0 0.0
2016-Jul-17 21:32N 47°39' W 122°12'0 0.0
2016-Jul-17 20:32N 47°39' W 122°12'0 0.0
2016-Jul-17 19:29N 47°39' W 122°12'0 0.0
2016-Jul-17 18:32N 47°39' W 122°12'0 0.0
2016-Jul-17 17:26N 47°39' W 122°12'0 0.0
2016-Jul-17 16:32N 47°39' W 122°12'0 0.0
2016-Jul-17 15:20N 47°39' W 122°12'0 0.0
2016-Jul-17 14:32N 47°39' W 122°12'0 0.0
2016-Jul-17 13:32N 47°39' W 122°12'0 0.0
2016-Jul-17 12:32N 47°39' W 122°12'0 0.0
2016-Jul-17 11:26N 47°39' W 122°12'0 0.0
2016-Jul-17 10:20N 47°39' W 122°12'0 0.0
2016-Jul-17 09:26N 47°39' W 122°12'0 0.0
2016-Jul-17 08:32N 47°39' W 122°12'0 0.0
2016-Jul-17 07:20N 47°39' W 122°12'0 0.0
2016-Jul-17 06:32N 47°39' W 122°12'0 0.0
2016-Jul-17 04:32N 47°39' W 122°12'0 0.0
2016-Jul-17 03:32N 47°39' W 122°12'0 0.0
2016-Jul-17 02:32N 47°39' W 122°12'0 0.0
2016-Jul-17 01:32N 47°39' W 122°12'0 0.0
2016-Jul-17 00:32N 47°39' W 122°12'0 0.0
2016-Jul-16 23:26N 47°39' W 122°12'0 0.0
2016-Jul-16 22:32N 47°39' W 122°12'0 0.0
2016-Jul-16 21:29N 47°39' W 122°12'0 0.0
2016-Jul-16 20:32N 47°39' W 122°12'0 0.0
2016-Jul-16 19:32N 47°39' W 122°12'0 0.0
2016-Jul-16 18:32N 47°39' W 122°12'0 0.0
2016-Jul-16 17:26N 47°39' W 122°12'0 0.0
2016-Jul-16 16:32N 47°39' W 122°12'0 0.0
2016-Jul-16 15:32N 47°39' W 122°12'0 0.0
2016-Jul-16 14:32N 47°39' W 122°12'0 0.0
2016-Jul-16 13:32N 47°39' W 122°12'0 0.0
2016-Jul-16 12:32N 47°39' W 122°12'0 0.0
2016-Jul-16 11:32N 47°39' W 122°12'0 0.0
2016-Jul-16 10:32N 47°39' W 122°12'0 0.0
2016-Jul-16 09:32N 47°39' W 122°12'0 0.0
2016-Jul-16 08:32N 47°39' W 122°12'0 0.0
2016-Jul-16 07:32N 47°39' W 122°12'0 0.0
2016-Jul-16 06:32N 47°39' W 122°12'0 0.0
2016-Jul-16 04:32N 47°39' W 122°12'0 0.1
2016-Jul-16 03:29N 47°39' W 122°13'1 0.4
2016-Jul-16 00:33N 47°40' W 122°13'  

Dump ship's entire track history